sensor_id;sensor_type;location;lat;lon;timestamp;P1;durP1;ratioP1;P2;durP2;ratioP2
64633;SDS011;51043;52.406;9.690;2023-07-29T00:00:18;3.60;;;3.10;;
64633;SDS011;51043;52.406;9.690;2023-07-29T00:02:47;4.72;;;2.90;;
64633;SDS011;51043;52.406;9.690;2023-07-29T00:05:15;6.70;;;2.85;;
64633;SDS011;51043;52.406;9.690;2023-07-29T00:07:43;3.47;;;3.17;;
64633;SDS011;51043;52.406;9.690;2023-07-29T00:10:11;6.00;;;2.80;;
64633;SDS011;51043;52.406;9.690;2023-07-29T00:12:40;6.03;;;2.80;;
64633;SDS011;51043;52.406;9.690;2023-07-29T00:15:09;4.43;;;3.13;;
64633;SDS011;51043;52.406;9.690;2023-07-29T00:17:39;3.55;;;2.97;;
64633;SDS011;51043;52.406;9.690;2023-07-29T00:20:07;5.35;;;2.75;;
64633;SDS011;51043;52.406;9.690;2023-07-29T00:22:35;4.03;;;2.90;;
64633;SDS011;51043;52.406;9.690;2023-07-29T00:25:04;4.10;;;3.00;;
64633;SDS011;51043;52.406;9.690;2023-07-29T00:27:33;3.22;;;2.78;;
64633;SDS011;51043;52.406;9.690;2023-07-29T00:30:03;3.90;;;3.15;;
64633;SDS011;51043;52.406;9.690;2023-07-29T00:32:32;6.63;;;3.00;;
64633;SDS011;51043;52.406;9.690;2023-07-29T00:35:00;5.63;;;3.00;;
64633;SDS011;51043;52.406;9.690;2023-07-29T00:37:29;5.50;;;3.10;;
64633;SDS011;51043;52.406;9.690;2023-07-29T00:39:58;4.53;;;2.92;;
64633;SDS011;51043;52.406;9.690;2023-07-29T00:42:26;3.78;;;3.13;;
64633;SDS011;51043;52.406;9.690;2023-07-29T00:44:55;7.03;;;2.85;;
64633;SDS011;51043;52.406;9.690;2023-07-29T00:47:28;5.20;;;3.15;;
64633;SDS011;51043;52.406;9.690;2023-07-29T00:49:56;3.78;;;3.47;;
64633;SDS011;51043;52.406;9.690;2023-07-29T00:52:24;8.30;;;3.13;;
64633;SDS011;51043;52.406;9.690;2023-07-29T00:54:53;8.40;;;2.97;;
64633;SDS011;51043;52.406;9.690;2023-07-29T00:57:24;4.43;;;3.20;;
64633;SDS011;51043;52.406;9.690;2023-07-29T00:59:54;6.10;;;3.28;;
64633;SDS011;51043;52.406;9.690;2023-07-29T01:02:24;4.60;;;3.33;;
64633;SDS011;51043;52.406;9.690;2023-07-29T01:04:55;4.15;;;2.90;;
64633;SDS011;51043;52.406;9.690;2023-07-29T01:07:27;3.50;;;3.20;;
64633;SDS011;51043;52.406;9.690;2023-07-29T01:10:01;3.95;;;3.35;;
64633;SDS011;51043;52.406;9.690;2023-07-29T01:12:35;5.20;;;3.30;;
64633;SDS011;51043;52.406;9.690;2023-07-29T01:15:10;3.65;;;3.20;;
64633;SDS011;51043;52.406;9.690;2023-07-29T01:17:43;7.38;;;3.47;;
64633;SDS011;51043;52.406;9.690;2023-07-29T01:20:17;3.33;;;3.03;;
64633;SDS011;51043;52.406;9.690;2023-07-29T01:22:47;3.30;;;3.00;;
64633;SDS011;51043;52.406;9.690;2023-07-29T01:25:17;4.13;;;3.33;;
64633;SDS011;51043;52.406;9.690;2023-07-29T01:27:47;4.35;;;3.42;;
64633;SDS011;51043;52.406;9.690;2023-07-29T01:30:18;5.55;;;3.25;;
64633;SDS011;51043;52.406;9.690;2023-07-29T01:32:49;4.55;;;3.30;;
64633;SDS011;51043;52.406;9.690;2023-07-29T01:35:27;3.55;;;3.10;;
64633;SDS011;51043;52.406;9.690;2023-07-29T01:38:03;4.05;;;3.30;;
64633;SDS011;51043;52.406;9.690;2023-07-29T01:40:38;5.05;;;3.25;;
64633;SDS011;51043;52.406;9.690;2023-07-29T01:43:08;5.65;;;3.30;;
64633;SDS011;51043;52.406;9.690;2023-07-29T01:45:36;3.30;;;3.00;;
64633;SDS011;51043;52.406;9.690;2023-07-29T01:48:06;3.85;;;2.85;;
64633;SDS011;51043;52.406;9.690;2023-07-29T01:50:34;3.30;;;3.00;;
64633;SDS011;51043;52.406;9.690;2023-07-29T01:53:03;3.22;;;2.92;;
64633;SDS011;51043;52.406;9.690;2023-07-29T01:55:31;5.50;;;2.90;;
64633;SDS011;51043;52.406;9.690;2023-07-29T01:58:00;4.47;;;2.90;;
64633;SDS011;51043;52.406;9.690;2023-07-29T02:00:30;4.13;;;2.50;;
64633;SDS011;51043;52.406;9.690;2023-07-29T02:03:00;2.50;;;2.30;;
64633;SDS011;51043;52.406;9.690;2023-07-29T02:05:28;4.60;;;2.40;;
64633;SDS011;51043;52.406;9.690;2023-07-29T02:07:58;4.18;;;2.40;;
64633;SDS011;51043;52.406;9.690;2023-07-29T02:10:26;3.45;;;2.35;;
64633;SDS011;51043;52.406;9.690;2023-07-29T02:12:54;2.08;;;1.92;;
64633;SDS011;51043;52.406;9.690;2023-07-29T02:15:25;1.77;;;1.67;;
64633;SDS011;51043;52.406;9.690;2023-07-29T02:17:54;2.55;;;2.03;;
64633;SDS011;51043;52.406;9.690;2023-07-29T02:20:25;2.17;;;2.00;;
64633;SDS011;51043;52.406;9.690;2023-07-29T02:22:53;2.78;;;2.00;;
64633;SDS011;51043;52.406;9.690;2023-07-29T02:25:22;2.83;;;1.92;;
64633;SDS011;51043;52.406;9.690;2023-07-29T02:27:50;4.57;;;2.10;;
64633;SDS011;51043;52.406;9.690;2023-07-29T02:30:20;3.05;;;1.75;;
64633;SDS011;51043;52.406;9.690;2023-07-29T02:32:49;2.10;;;1.85;;
64633;SDS011;51043;52.406;9.690;2023-07-29T02:35:17;1.80;;;1.60;;
64633;SDS011;51043;52.406;9.690;2023-07-29T02:37:47;1.73;;;1.60;;
64633;SDS011;51043;52.406;9.690;2023-07-29T02:40:19;3.80;;;1.90;;
64633;SDS011;51043;52.406;9.690;2023-07-29T02:42:49;3.58;;;1.90;;
64633;SDS011;51043;52.406;9.690;2023-07-29T02:45:17;1.88;;;1.73;;
64633;SDS011;51043;52.406;9.690;2023-07-29T02:47:45;1.90;;;1.70;;
64633;SDS011;51043;52.406;9.690;2023-07-29T02:50:15;8.48;;;1.88;;
64633;SDS011;51043;52.406;9.690;2023-07-29T02:52:43;4.63;;;1.67;;
64633;SDS011;51043;52.406;9.690;2023-07-29T02:55:11;3.13;;;1.92;;
64633;SDS011;51043;52.406;9.690;2023-07-29T02:57:39;2.28;;;1.75;;
64633;SDS011;51043;52.406;9.690;2023-07-29T03:00:08;2.35;;;1.80;;
64633;SDS011;51043;52.406;9.690;2023-07-29T03:02:37;2.80;;;1.98;;
64633;SDS011;51043;52.406;9.690;2023-07-29T03:05:06;4.82;;;2.03;;
64633;SDS011;51043;52.406;9.690;2023-07-29T03:07:36;2.47;;;1.73;;
64633;SDS011;51043;52.406;9.690;2023-07-29T03:10:05;7.65;;;2.10;;
64633;SDS011;51043;52.406;9.690;2023-07-29T03:12:33;2.38;;;1.98;;
64633;SDS011;51043;52.406;9.690;2023-07-29T03:15:01;2.00;;;1.77;;
64633;SDS011;51043;52.406;9.690;2023-07-29T03:17:30;7.32;;;1.88;;
64633;SDS011;51043;52.406;9.690;2023-07-29T03:19:58;3.60;;;2.00;;
64633;SDS011;51043;52.406;9.690;2023-07-29T03:22:27;1.70;;;1.60;;
64633;SDS011;51043;52.406;9.690;2023-07-29T03:24:59;3.05;;;2.00;;
64633;SDS011;51043;52.406;9.690;2023-07-29T03:27:27;2.85;;;1.92;;
64633;SDS011;51043;52.406;9.690;2023-07-29T03:29:55;1.90;;;1.70;;
64633;SDS011;51043;52.406;9.690;2023-07-29T03:32:26;3.35;;;1.90;;
64633;SDS011;51043;52.406;9.690;2023-07-29T03:34:54;4.00;;;1.70;;
64633;SDS011;51043;52.406;9.690;2023-07-29T03:37:23;6.43;;;2.05;;
64633;SDS011;51043;52.406;9.690;2023-07-29T03:39:52;1.83;;;1.60;;
64633;SDS011;51043;52.406;9.690;2023-07-29T03:42:21;2.17;;;1.98;;
64633;SDS011;51043;52.406;9.690;2023-07-29T03:44:49;4.60;;;1.80;;
64633;SDS011;51043;52.406;9.690;2023-07-29T03:47:17;2.60;;;1.80;;
64633;SDS011;51043;52.406;9.690;2023-07-29T03:49:45;2.85;;;1.90;;
64633;SDS011;51043;52.406;9.690;2023-07-29T03:52:15;3.20;;;2.00;;
64633;SDS011;51043;52.406;9.690;2023-07-29T03:54:43;4.93;;;1.92;;
64633;SDS011;51043;52.406;9.690;2023-07-29T03:57:11;3.67;;;1.60;;
64633;SDS011;51043;52.406;9.690;2023-07-29T03:59:41;1.80;;;1.70;;
64633;SDS011;51043;52.406;9.690;2023-07-29T04:02:09;2.80;;;1.70;;
64633;SDS011;51043;52.406;9.690;2023-07-29T04:04:37;3.10;;;1.80;;
64633;SDS011;51043;52.406;9.690;2023-07-29T04:07:05;3.72;;;2.00;;
64633;SDS011;51043;52.406;9.690;2023-07-29T04:09:33;3.35;;;1.63;;
64633;SDS011;51043;52.406;9.690;2023-07-29T04:12:02;3.72;;;1.67;;
64633;SDS011;51043;52.406;9.690;2023-07-29T04:14:30;2.38;;;1.90;;
64633;SDS011;51043;52.406;9.690;2023-07-29T04:17:00;2.00;;;1.80;;
64633;SDS011;51043;52.406;9.690;2023-07-29T04:19:28;2.75;;;1.80;;
64633;SDS011;51043;52.406;9.690;2023-07-29T04:21:56;2.67;;;1.80;;
64633;SDS011;51043;52.406;9.690;2023-07-29T04:24:25;4.97;;;1.80;;
64633;SDS011;51043;52.406;9.690;2023-07-29T04:26:54;2.33;;;1.88;;
64633;SDS011;51043;52.406;9.690;2023-07-29T04:29:22;3.58;;;2.00;;
64633;SDS011;51043;52.406;9.690;2023-07-29T04:31:50;1.75;;;1.65;;
64633;SDS011;51043;52.406;9.690;2023-07-29T04:34:20;4.07;;;1.95;;
64633;SDS011;51043;52.406;9.690;2023-07-29T04:36:48;5.60;;;1.80;;
64633;SDS011;51043;52.406;9.690;2023-07-29T04:39:17;2.55;;;1.80;;
64633;SDS011;51043;52.406;9.690;2023-07-29T04:41:45;2.63;;;1.50;;
64633;SDS011;51043;52.406;9.690;2023-07-29T04:44:14;5.30;;;1.90;;
64633;SDS011;51043;52.406;9.690;2023-07-29T04:46:42;1.73;;;1.60;;
64633;SDS011;51043;52.406;9.690;2023-07-29T04:49:10;2.95;;;1.80;;
64633;SDS011;51043;52.406;9.690;2023-07-29T04:51:40;4.43;;;1.77;;
64633;SDS011;51043;52.406;9.690;2023-07-29T04:54:08;3.03;;;1.85;;
64633;SDS011;51043;52.406;9.690;2023-07-29T04:56:36;3.40;;;1.83;;
64633;SDS011;51043;52.406;9.690;2023-07-29T04:59:04;4.00;;;1.95;;
64633;SDS011;51043;52.406;9.690;2023-07-29T05:01:34;4.18;;;2.28;;
64633;SDS011;51043;52.406;9.690;2023-07-29T05:04:03;2.42;;;1.90;;
64633;SDS011;51043;52.406;9.690;2023-07-29T05:06:31;7.25;;;2.08;;
64633;SDS011;51043;52.406;9.690;2023-07-29T05:09:01;5.32;;;2.17;;
64633;SDS011;51043;52.406;9.690;2023-07-29T05:11:40;2.50;;;2.30;;
64633;SDS011;51043;52.406;9.690;2023-07-29T05:14:10;3.72;;;2.20;;
64633;SDS011;51043;52.406;9.690;2023-07-29T05:16:38;5.25;;;2.30;;
64633;SDS011;51043;52.406;9.690;2023-07-29T05:19:07;2.22;;;2.08;;
64633;SDS011;51043;52.406;9.690;2023-07-29T05:21:35;2.08;;;1.80;;
64633;SDS011;51043;52.406;9.690;2023-07-29T05:24:06;4.05;;;2.00;;
64633;SDS011;51043;52.406;9.690;2023-07-29T05:26:34;3.20;;;2.40;;
64633;SDS011;51043;52.406;9.690;2023-07-29T05:29:02;4.25;;;2.10;;
64633;SDS011;51043;52.406;9.690;2023-07-29T05:31:31;3.28;;;2.40;;
64633;SDS011;51043;52.406;9.690;2023-07-29T05:33:59;4.47;;;2.30;;
64633;SDS011;51043;52.406;9.690;2023-07-29T05:36:29;5.38;;;2.10;;
64633;SDS011;51043;52.406;9.690;2023-07-29T05:39:03;3.95;;;2.85;;
64633;SDS011;51043;52.406;9.690;2023-07-29T05:41:33;6.00;;;2.05;;
64633;SDS011;51043;52.406;9.690;2023-07-29T05:44:04;4.97;;;2.08;;
64633;SDS011;51043;52.406;9.690;2023-07-29T05:46:33;3.10;;;2.28;;
64633;SDS011;51043;52.406;9.690;2023-07-29T05:49:02;6.75;;;2.28;;
64633;SDS011;51043;52.406;9.690;2023-07-29T05:51:30;2.25;;;1.95;;
64633;SDS011;51043;52.406;9.690;2023-07-29T05:53:58;2.88;;;2.10;;
64633;SDS011;51043;52.406;9.690;2023-07-29T05:56:27;1.75;;;1.65;;
64633;SDS011;51043;52.406;9.690;2023-07-29T05:58:57;2.10;;;1.83;;
64633;SDS011;51043;52.406;9.690;2023-07-29T06:01:28;2.22;;;1.92;;
64633;SDS011;51043;52.406;9.690;2023-07-29T06:03:56;3.05;;;2.03;;
64633;SDS011;51043;52.406;9.690;2023-07-29T06:06:25;1.80;;;1.70;;
64633;SDS011;51043;52.406;9.690;2023-07-29T06:08:53;2.33;;;1.88;;
64633;SDS011;51043;52.406;9.690;2023-07-29T06:11:21;3.15;;;1.75;;
64633;SDS011;51043;52.406;9.690;2023-07-29T06:13:49;2.30;;;2.08;;
64633;SDS011;51043;52.406;9.690;2023-07-29T06:16:19;3.00;;;1.92;;
64633;SDS011;51043;52.406;9.690;2023-07-29T06:18:47;4.18;;;2.03;;
64633;SDS011;51043;52.406;9.690;2023-07-29T06:21:15;3.53;;;2.17;;
64633;SDS011;51043;52.406;9.690;2023-07-29T06:23:45;3.63;;;2.00;;
64633;SDS011;51043;52.406;9.690;2023-07-29T06:26:13;4.20;;;2.17;;
64633;SDS011;51043;52.406;9.690;2023-07-29T06:28:41;3.78;;;1.95;;
64633;SDS011;51043;52.406;9.690;2023-07-29T06:31:10;5.43;;;2.45;;
64633;SDS011;51043;52.406;9.690;2023-07-29T06:33:40;3.08;;;2.10;;
64633;SDS011;51043;52.406;9.690;2023-07-29T06:36:08;5.55;;;2.10;;
64633;SDS011;51043;52.406;9.690;2023-07-29T06:38:36;3.05;;;1.80;;
64633;SDS011;51043;52.406;9.690;2023-07-29T06:41:05;2.45;;;2.08;;
64633;SDS011;51043;52.406;9.690;2023-07-29T06:43:33;4.47;;;2.13;;
64633;SDS011;51043;52.406;9.690;2023-07-29T06:46:08;5.32;;;1.90;;
64633;SDS011;51043;52.406;9.690;2023-07-29T06:48:36;3.15;;;1.80;;
64633;SDS011;51043;52.406;9.690;2023-07-29T06:51:06;3.97;;;1.85;;
64633;SDS011;51043;52.406;9.690;2023-07-29T06:53:34;3.05;;;2.00;;
64633;SDS011;51043;52.406;9.690;2023-07-29T06:56:02;3.42;;;1.90;;
64633;SDS011;51043;52.406;9.690;2023-07-29T06:58:31;3.67;;;1.83;;
64633;SDS011;51043;52.406;9.690;2023-07-29T07:01:00;4.00;;;1.80;;
64633;SDS011;51043;52.406;9.690;2023-07-29T07:03:30;2.35;;;1.73;;
64633;SDS011;51043;52.406;9.690;2023-07-29T07:05:58;4.88;;;1.98;;
64633;SDS011;51043;52.406;9.690;2023-07-29T07:08:29;4.50;;;1.90;;
64633;SDS011;51043;52.406;9.690;2023-07-29T07:10:57;2.75;;;1.90;;
64633;SDS011;51043;52.406;9.690;2023-07-29T07:13:26;2.60;;;1.60;;
64633;SDS011;51043;52.406;9.690;2023-07-29T07:15:54;5.28;;;1.77;;
64633;SDS011;51043;52.406;9.690;2023-07-29T07:18:22;2.20;;;1.63;;
64633;SDS011;51043;52.406;9.690;2023-07-29T07:20:51;4.55;;;1.73;;
64633;SDS011;51043;52.406;9.690;2023-07-29T07:23:19;13.75;;;1.95;;
64633;SDS011;51043;52.406;9.690;2023-07-29T07:25:56;3.83;;;1.98;;
64633;SDS011;51043;52.406;9.690;2023-07-29T07:28:25;9.50;;;2.00;;
64633;SDS011;51043;52.406;9.690;2023-07-29T07:30:53;3.83;;;2.00;;
64633;SDS011;51043;52.406;9.690;2023-07-29T07:33:24;3.40;;;1.67;;
64633;SDS011;51043;52.406;9.690;2023-07-29T07:35:52;4.95;;;1.60;;
64633;SDS011;51043;52.406;9.690;2023-07-29T07:38:24;5.47;;;1.70;;
64633;SDS011;51043;52.406;9.690;2023-07-29T07:40:53;2.67;;;1.80;;
64633;SDS011;51043;52.406;9.690;2023-07-29T07:43:24;6.00;;;1.80;;
64633;SDS011;51043;52.406;9.690;2023-07-29T07:45:57;1.83;;;1.50;;
64633;SDS011;51043;52.406;9.690;2023-07-29T07:48:27;2.75;;;1.50;;
64633;SDS011;51043;52.406;9.690;2023-07-29T07:50:55;3.17;;;1.67;;
64633;SDS011;51043;52.406;9.690;2023-07-29T07:53:24;4.57;;;1.70;;
64633;SDS011;51043;52.406;9.690;2023-07-29T07:55:52;2.63;;;1.45;;
64633;SDS011;51043;52.406;9.690;2023-07-29T07:58:21;2.47;;;1.40;;
64633;SDS011;51043;52.406;9.690;2023-07-29T08:00:50;3.42;;;1.40;;
64633;SDS011;51043;52.406;9.690;2023-07-29T08:03:18;3.00;;;1.33;;
64633;SDS011;51043;52.406;9.690;2023-07-29T08:05:47;3.08;;;1.50;;
64633;SDS011;51043;52.406;9.690;2023-07-29T08:08:16;3.15;;;1.40;;
64633;SDS011;51043;52.406;9.690;2023-07-29T08:10:44;2.60;;;1.55;;
64633;SDS011;51043;52.406;9.690;2023-07-29T08:13:12;2.72;;;1.60;;
64633;SDS011;51043;52.406;9.690;2023-07-29T08:15:40;3.95;;;1.50;;
64633;SDS011;51043;52.406;9.690;2023-07-29T08:18:10;3.15;;;1.58;;
64633;SDS011;51043;52.406;9.690;2023-07-29T08:20:38;3.72;;;1.73;;
64633;SDS011;51043;52.406;9.690;2023-07-29T08:23:06;2.17;;;1.60;;
64633;SDS011;51043;52.406;9.690;2023-07-29T08:25:35;3.15;;;1.88;;
64633;SDS011;51043;52.406;9.690;2023-07-29T08:28:03;3.50;;;2.17;;
64633;SDS011;51043;52.406;9.690;2023-07-29T08:30:31;2.97;;;1.95;;
64633;SDS011;51043;52.406;9.690;2023-07-29T08:33:00;2.05;;;1.88;;
64633;SDS011;51043;52.406;9.690;2023-07-29T08:35:29;2.67;;;1.90;;
64633;SDS011;51043;52.406;9.690;2023-07-29T08:37:58;3.30;;;1.90;;
64633;SDS011;51043;52.406;9.690;2023-07-29T08:40:27;2.38;;;1.88;;
64633;SDS011;51043;52.406;9.690;2023-07-29T08:42:57;4.90;;;1.83;;
64633;SDS011;51043;52.406;9.690;2023-07-29T08:45:28;2.88;;;2.30;;
64633;SDS011;51043;52.406;9.690;2023-07-29T08:47:58;3.55;;;2.53;;
64633;SDS011;51043;52.406;9.690;2023-07-29T08:50:31;4.10;;;2.60;;
64633;SDS011;51043;52.406;9.690;2023-07-29T08:53:03;6.07;;;2.70;;
64633;SDS011;51043;52.406;9.690;2023-07-29T08:55:32;4.45;;;2.70;;
64633;SDS011;51043;52.406;9.690;2023-07-29T08:58:00;5.32;;;2.88;;
64633;SDS011;51043;52.406;9.690;2023-07-29T09:00:33;4.28;;;2.78;;
64633;SDS011;51043;52.406;9.690;2023-07-29T09:03:02;3.78;;;2.70;;
64633;SDS011;51043;52.406;9.690;2023-07-29T09:05:34;2.75;;;2.42;;
64633;SDS011;51043;52.406;9.690;2023-07-29T09:08:03;4.30;;;2.38;;
64633;SDS011;51043;52.406;9.690;2023-07-29T09:10:34;3.97;;;2.60;;
64633;SDS011;51043;52.406;9.690;2023-07-29T09:13:03;3.08;;;2.78;;
64633;SDS011;51043;52.406;9.690;2023-07-29T09:15:34;3.13;;;2.70;;
64633;SDS011;51043;52.406;9.690;2023-07-29T09:18:10;2.88;;;2.67;;
64633;SDS011;51043;52.406;9.690;2023-07-29T09:20:47;3.80;;;2.50;;
64633;SDS011;51043;52.406;9.690;2023-07-29T09:23:15;4.22;;;2.55;;
64633;SDS011;51043;52.406;9.690;2023-07-29T09:25:44;3.13;;;2.58;;
64633;SDS011;51043;52.406;9.690;2023-07-29T09:28:15;2.75;;;2.30;;
64633;SDS011;51043;52.406;9.690;2023-07-29T09:30:45;3.13;;;2.72;;
64633;SDS011;51043;52.406;9.690;2023-07-29T09:33:15;3.08;;;2.60;;
64633;SDS011;51043;52.406;9.690;2023-07-29T09:35:47;2.72;;;2.30;;
64633;SDS011;51043;52.406;9.690;2023-07-29T09:38:16;2.70;;;2.50;;
64633;SDS011;51043;52.406;9.690;2023-07-29T09:40:44;4.05;;;3.63;;
64633;SDS011;51043;52.406;9.690;2023-07-29T09:43:17;5.38;;;3.90;;
64633;SDS011;51043;52.406;9.690;2023-07-29T09:45:46;6.60;;;4.45;;
64633;SDS011;51043;52.406;9.690;2023-07-29T09:48:19;4.70;;;4.30;;
64633;SDS011;51043;52.406;9.690;2023-07-29T09:50:51;7.18;;;4.43;;
64633;SDS011;51043;52.406;9.690;2023-07-29T09:53:19;7.13;;;4.55;;
64633;SDS011;51043;52.406;9.690;2023-07-29T09:55:48;4.90;;;4.40;;
64633;SDS011;51043;52.406;9.690;2023-07-29T09:58:19;5.03;;;4.40;;
64633;SDS011;51043;52.406;9.690;2023-07-29T10:00:54;4.50;;;4.13;;
64633;SDS011;51043;52.406;9.690;2023-07-29T10:03:22;4.93;;;4.50;;
64633;SDS011;51043;52.406;9.690;2023-07-29T10:05:54;4.80;;;4.40;;
64633;SDS011;51043;52.406;9.690;2023-07-29T10:08:23;5.38;;;4.60;;
64633;SDS011;51043;52.406;9.690;2023-07-29T10:10:52;7.00;;;4.68;;
64633;SDS011;51043;52.406;9.690;2023-07-29T10:13:22;3.78;;;3.35;;
64633;SDS011;51043;52.406;9.690;2023-07-29T10:15:53;3.30;;;3.00;;
64633;SDS011;51043;52.406;9.690;2023-07-29T10:18:22;3.72;;;3.10;;
64633;SDS011;51043;52.406;9.690;2023-07-29T10:20:51;4.35;;;2.90;;
64633;SDS011;51043;52.406;9.690;2023-07-29T10:23:24;3.15;;;2.88;;
64633;SDS011;51043;52.406;9.690;2023-07-29T10:25:55;3.72;;;2.35;;
64633;SDS011;51043;52.406;9.690;2023-07-29T10:28:27;4.80;;;2.10;;
64633;SDS011;51043;52.406;9.690;2023-07-29T10:30:58;2.63;;;2.13;;
64633;SDS011;51043;52.406;9.690;2023-07-29T10:33:26;4.55;;;2.20;;
64633;SDS011;51043;52.406;9.690;2023-07-29T10:35:55;2.40;;;2.20;;
64633;SDS011;51043;52.406;9.690;2023-07-29T10:38:24;3.80;;;1.88;;
64633;SDS011;51043;52.406;9.690;2023-07-29T10:40:53;2.85;;;2.20;;
64633;SDS011;51043;52.406;9.690;2023-07-29T10:43:24;2.15;;;1.90;;
64633;SDS011;51043;52.406;9.690;2023-07-29T10:45:55;2.10;;;1.90;;
64633;SDS011;51043;52.406;9.690;2023-07-29T10:48:41;3.05;;;1.70;;
64633;SDS011;51043;52.406;9.690;2023-07-29T10:51:24;2.65;;;1.90;;
64633;SDS011;51043;52.406;9.690;2023-07-29T10:53:56;3.70;;;2.10;;
64633;SDS011;51043;52.406;9.690;2023-07-29T10:56:29;3.15;;;2.08;;
64633;SDS011;51043;52.406;9.690;2023-07-29T10:58:59;3.00;;;1.90;;
64633;SDS011;51043;52.406;9.690;2023-07-29T11:01:50;3.85;;;1.80;;
64633;SDS011;51043;52.406;9.690;2023-07-29T11:04:24;2.15;;;1.70;;
64633;SDS011;51043;52.406;9.690;2023-07-29T11:09:54;2.25;;;1.40;;
64633;SDS011;51043;52.406;9.690;2023-07-29T11:12:34;2.35;;;1.40;;
64633;SDS011;51043;52.406;9.690;2023-07-29T11:15:14;1.80;;;1.60;;
64633;SDS011;51043;52.406;9.690;2023-07-29T11:17:47;4.25;;;1.60;;
64633;SDS011;51043;52.406;9.690;2023-07-29T11:20:20;2.20;;;1.40;;
64633;SDS011;51043;52.406;9.690;2023-07-29T11:22:52;2.08;;;1.60;;
64633;SDS011;51043;52.406;9.690;2023-07-29T11:25:21;2.63;;;1.45;;
64633;SDS011;51043;52.406;9.690;2023-07-29T11:27:50;1.40;;;1.30;;
64633;SDS011;51043;52.406;9.690;2023-07-29T11:30:20;2.55;;;0.98;;
64633;SDS011;51043;52.406;9.690;2023-07-29T11:32:49;1.30;;;1.20;;
64633;SDS011;51043;52.406;9.690;2023-07-29T11:35:20;2.45;;;1.20;;
64633;SDS011;51043;52.406;9.690;2023-07-29T11:37:49;3.10;;;1.00;;
64633;SDS011;51043;52.406;9.690;2023-07-29T11:40:20;1.58;;;1.13;;
64633;SDS011;51043;52.406;9.690;2023-07-29T11:42:49;1.80;;;1.20;;
64633;SDS011;51043;52.406;9.690;2023-07-29T11:45:21;0.95;;;0.95;;
64633;SDS011;51043;52.406;9.690;2023-07-29T11:47:53;1.10;;;1.00;;
64633;SDS011;51043;52.406;9.690;2023-07-29T11:50:21;1.17;;;1.08;;
64633;SDS011;51043;52.406;9.690;2023-07-29T11:52:49;2.38;;;1.20;;
64633;SDS011;51043;52.406;9.690;2023-07-29T11:55:19;4.25;;;0.98;;
64633;SDS011;51043;52.406;9.690;2023-07-29T11:57:49;1.00;;;0.90;;
64633;SDS011;51043;52.406;9.690;2023-07-29T12:00:19;0.77;;;0.77;;
64633;SDS011;51043;52.406;9.690;2023-07-29T12:02:48;1.20;;;1.10;;
64633;SDS011;51043;52.406;9.690;2023-07-29T12:05:17;0.80;;;0.80;;
64633;SDS011;51043;52.406;9.690;2023-07-29T12:07:48;1.50;;;1.05;;
64633;SDS011;51043;52.406;9.690;2023-07-29T12:10:20;1.42;;;0.80;;
64633;SDS011;51043;52.406;9.690;2023-07-29T12:12:49;2.42;;;1.00;;
64633;SDS011;51043;52.406;9.690;2023-07-29T12:15:24;1.30;;;0.90;;
64633;SDS011;51043;52.406;9.690;2023-07-29T12:17:54;0.93;;;0.85;;
64633;SDS011;51043;52.406;9.690;2023-07-29T12:20:23;1.13;;;0.90;;
64633;SDS011;51043;52.406;9.690;2023-07-29T12:22:52;0.80;;;0.80;;
64633;SDS011;51043;52.406;9.690;2023-07-29T12:25:28;1.52;;;0.90;;
64633;SDS011;51043;52.406;9.690;2023-07-29T12:28:01;1.52;;;0.82;;
64633;SDS011;51043;52.406;9.690;2023-07-29T12:30:30;1.63;;;0.80;;
64633;SDS011;51043;52.406;9.690;2023-07-29T12:32:59;0.85;;;0.82;;
64633;SDS011;51043;52.406;9.690;2023-07-29T12:35:37;0.77;;;0.73;;
64633;SDS011;51043;52.406;9.690;2023-07-29T12:38:05;0.90;;;0.90;;
64633;SDS011;51043;52.406;9.690;2023-07-29T12:40:39;0.93;;;0.93;;
64633;SDS011;51043;52.406;9.690;2023-07-29T12:43:08;3.60;;;0.85;;
64633;SDS011;51043;52.406;9.690;2023-07-29T12:45:37;1.67;;;0.90;;
64633;SDS011;51043;52.406;9.690;2023-07-29T12:48:06;1.50;;;1.00;;
64633;SDS011;51043;52.406;9.690;2023-07-29T12:50:36;1.90;;;0.95;;
64633;SDS011;51043;52.406;9.690;2023-07-29T12:53:04;2.40;;;1.00;;
64633;SDS011;51043;52.406;9.690;2023-07-29T12:55:34;0.77;;;0.77;;
64633;SDS011;51043;52.406;9.690;2023-07-29T12:58:04;0.75;;;0.70;;
64633;SDS011;51043;52.406;9.690;2023-07-29T13:00:32;1.55;;;1.00;;
64633;SDS011;51043;52.406;9.690;2023-07-29T13:03:01;2.60;;;1.20;;
64633;SDS011;51043;52.406;9.690;2023-07-29T13:05:32;0.70;;;0.70;;
64633;SDS011;51043;52.406;9.690;2023-07-29T13:08:00;0.80;;;0.80;;
64633;SDS011;51043;52.406;9.690;2023-07-29T13:10:28;0.70;;;0.70;;
64633;SDS011;51043;52.406;9.690;2023-07-29T13:12:59;1.52;;;0.77;;
64633;SDS011;51043;52.406;9.690;2023-07-29T13:15:29;2.67;;;1.15;;
64633;SDS011;51043;52.406;9.690;2023-07-29T13:17:58;3.92;;;1.20;;
64633;SDS011;51043;52.406;9.690;2023-07-29T13:20:26;0.90;;;0.90;;
64633;SDS011;51043;52.406;9.690;2023-07-29T13:22:55;1.13;;;0.90;;
64633;SDS011;51043;52.406;9.690;2023-07-29T13:25:25;0.82;;;0.82;;
64633;SDS011;51043;52.406;9.690;2023-07-29T13:27:54;1.02;;;0.93;;
64633;SDS011;51043;52.406;9.690;2023-07-29T13:30:24;2.40;;;1.08;;
64633;SDS011;51043;52.406;9.690;2023-07-29T13:32:54;3.08;;;1.10;;
64633;SDS011;51043;52.406;9.690;2023-07-29T13:35:24;2.35;;;1.13;;
64633;SDS011;51043;52.406;9.690;2023-07-29T13:37:53;1.15;;;1.05;;
64633;SDS011;51043;52.406;9.690;2023-07-29T13:40:21;1.33;;;0.88;;
64633;SDS011;51043;52.406;9.690;2023-07-29T13:42:49;0.95;;;0.80;;
64633;SDS011;51043;52.406;9.690;2023-07-29T13:45:18;1.17;;;0.80;;
64633;SDS011;51043;52.406;9.690;2023-07-29T13:47:49;0.98;;;0.90;;
64633;SDS011;51043;52.406;9.690;2023-07-29T13:50:19;1.58;;;1.05;;
64633;SDS011;51043;52.406;9.690;2023-07-29T13:52:47;1.45;;;1.05;;
64633;SDS011;51043;52.406;9.690;2023-07-29T13:55:16;1.27;;;1.17;;
64633;SDS011;51043;52.406;9.690;2023-07-29T13:57:50;1.27;;;1.17;;
64633;SDS011;51043;52.406;9.690;2023-07-29T14:00:18;3.10;;;1.13;;
64633;SDS011;51043;52.406;9.690;2023-07-29T14:02:46;1.08;;;1.00;;
64633;SDS011;51043;52.406;9.690;2023-07-29T14:05:14;1.17;;;1.08;;
64633;SDS011;51043;52.406;9.690;2023-07-29T14:07:44;0.90;;;0.90;;
64633;SDS011;51043;52.406;9.690;2023-07-29T14:10:12;2.15;;;0.90;;
64633;SDS011;51043;52.406;9.690;2023-07-29T14:12:40;1.25;;;1.17;;
64633;SDS011;51043;52.406;9.690;2023-07-29T14:15:08;1.20;;;1.08;;
64633;SDS011;51043;52.406;9.690;2023-07-29T14:17:39;1.00;;;0.95;;
64633;SDS011;51043;52.406;9.690;2023-07-29T14:20:08;1.67;;;1.05;;
64633;SDS011;51043;52.406;9.690;2023-07-29T14:22:37;4.10;;;1.25;;
64633;SDS011;51043;52.406;9.690;2023-07-29T14:25:07;1.23;;;1.00;;
64633;SDS011;51043;52.406;9.690;2023-07-29T14:27:37;1.90;;;0.85;;
64633;SDS011;51043;52.406;9.690;2023-07-29T14:30:05;1.67;;;1.08;;
64633;SDS011;51043;52.406;9.690;2023-07-29T14:32:34;1.63;;;1.00;;
64633;SDS011;51043;52.406;9.690;2023-07-29T14:35:06;1.85;;;0.93;;
64633;SDS011;51043;52.406;9.690;2023-07-29T14:37:37;1.00;;;1.00;;
64633;SDS011;51043;52.406;9.690;2023-07-29T14:40:06;1.42;;;1.20;;
64633;SDS011;51043;52.406;9.690;2023-07-29T14:42:36;1.10;;;1.00;;
64633;SDS011;51043;52.406;9.690;2023-07-29T14:45:05;1.10;;;1.00;;
64633;SDS011;51043;52.406;9.690;2023-07-29T14:47:35;3.42;;;1.20;;
64633;SDS011;51043;52.406;9.690;2023-07-29T14:50:03;0.95;;;0.95;;
64633;SDS011;51043;52.406;9.690;2023-07-29T14:52:32;1.83;;;1.25;;
64633;SDS011;51043;52.406;9.690;2023-07-29T14:55:00;6.13;;;1.13;;
64633;SDS011;51043;52.406;9.690;2023-07-29T14:57:38;1.10;;;1.00;;
64633;SDS011;51043;52.406;9.690;2023-07-29T15:00:08;3.17;;;1.13;;
64633;SDS011;51043;52.406;9.690;2023-07-29T15:02:38;1.70;;;1.30;;
64633;SDS011;51043;52.406;9.690;2023-07-29T15:05:07;1.38;;;1.20;;